Richfield, Pennsylvania
Current Conditions -  °F | °C
As of 2:53 PM on Monday 24 Nov 2014 (Local Time) from KSEG Reporting Station
Broken Clouds Broken Clouds  
Wind Chill: 68°   Ceiling: 8500
Heat Index: 68°   Visibility: 10mi
Dew Point: 52°   Wind: 17mph
Humidity: 56%   Direction: 190°S
Pressure: 29.51"   Gusts: 30mph
Location:  40.69°N, 77.11°W
Report Text: KSEG 241953Z AUTO 19015G26KT 10SM SCT047 BKN085 20/11 A2951 RMK AO2 PK WND 18026/1916 SLP990 T02000111
Loading
Personal Weather Stations






























Interactive Weather Map New forecast layout! Learn more

10-Day Weather Forecast

Advertisements
Track Severe Weather on mobile